Hawthorne, Florida
Current Conditions -  °F | °C
As of 4:53 AM on Tuesday 27 Jan 2015 (Local Time) from KGNV Reporting Station
Clear Clear  
Wind Chill: 35°   Ceiling: Unl
Heat Index: 40°   Visibility: 10mi
Dew Point: 34°   Wind: 7mph
Humidity: 79%   Direction: 280°W
Pressure: 29.98"   Gusts: NA
Location:  29.59°N, 82.09°W
Report Text: KGNV 270953Z AUTO 28006KT 10SM CLR 04/01 A2998 RMK AO2 SLP153 T00440011
Loading
Personal Weather Stations






























Interactive Weather Map New forecast layout! Learn more

10-Day Weather Forecast

Advertisements
Track Severe Weather on mobile